sensor_id;sensor_type;location;lat;lon;timestamp;P1;durP1;ratioP1;P2;durP2;ratioP2
20038;SDS011;21737;42.868;25.320;2022-10-28T00:00:21;9.73;;;5.17;;
20038;SDS011;21737;42.868;25.320;2022-10-28T00:03:23;8.80;;;5.17;;
20038;SDS011;21737;42.868;25.320;2022-10-28T00:06:28;6.97;;;5.20;;
20038;SDS011;21737;42.868;25.320;2022-10-28T00:09:30;8.93;;;5.50;;
20038;SDS011;21737;42.868;25.320;2022-10-28T00:12:35;8.37;;;4.70;;
20038;SDS011;21737;42.868;25.320;2022-10-28T00:15:37;7.97;;;5.07;;
20038;SDS011;21737;42.868;25.320;2022-10-28T00:18:39;9.07;;;4.17;;
20038;SDS011;21737;42.868;25.320;2022-10-28T00:21:41;9.47;;;4.37;;
20038;SDS011;21737;42.868;25.320;2022-10-28T00:24:43;8.20;;;5.23;;
20038;SDS011;21737;42.868;25.320;2022-10-28T00:27:44;5.83;;;3.73;;
20038;SDS011;21737;42.868;25.320;2022-10-28T00:30:46;8.53;;;4.93;;
20038;SDS011;21737;42.868;25.320;2022-10-28T00:33:48;8.73;;;4.50;;
20038;SDS011;21737;42.868;25.320;2022-10-28T00:36:50;8.37;;;5.20;;
20038;SDS011;21737;42.868;25.320;2022-10-28T00:39:51;10.30;;;5.43;;
20038;SDS011;21737;42.868;25.320;2022-10-28T00:42:53;16.57;;;7.00;;
20038;SDS011;21737;42.868;25.320;2022-10-28T00:45:55;14.20;;;6.63;;
20038;SDS011;21737;42.868;25.320;2022-10-28T00:49:13;13.23;;;6.40;;
20038;SDS011;21737;42.868;25.320;2022-10-28T00:52:18;13.73;;;6.50;;
20038;SDS011;21737;42.868;25.320;2022-10-28T00:55:21;16.57;;;7.03;;
20038;SDS011;21737;42.868;25.320;2022-10-28T00:58:23;13.07;;;6.17;;
20038;SDS011;21737;42.868;25.320;2022-10-28T01:01:26;16.63;;;6.30;;
20038;SDS011;21737;42.868;25.320;2022-10-28T01:04:27;10.10;;;4.80;;
20038;SDS011;21737;42.868;25.320;2022-10-28T01:07:29;8.30;;;5.23;;
20038;SDS011;21737;42.868;25.320;2022-10-28T01:17:16;15.73;;;7.00;;
20038;SDS011;21737;42.868;25.320;2022-10-28T01:30:20;10.80;;;5.30;;
20038;SDS011;21737;42.868;25.320;2022-10-28T01:33:37;9.53;;;5.17;;
20038;SDS011;21737;42.868;25.320;2022-10-28T01:40:02;11.73;;;5.17;;
20038;SDS011;21737;42.868;25.320;2022-10-28T01:43:12;12.63;;;5.23;;
20038;SDS011;21737;42.868;25.320;2022-10-28T01:46:17;10.70;;;5.37;;
20038;SDS011;21737;42.868;25.320;2022-10-28T01:49:23;10.20;;;5.27;;
20038;SDS011;21737;42.868;25.320;2022-10-28T01:52:26;9.67;;;5.40;;
20038;SDS011;21737;42.868;25.320;2022-10-28T01:55:32;9.67;;;4.83;;
20038;SDS011;21737;42.868;25.320;2022-10-28T01:58:35;9.53;;;5.90;;
20038;SDS011;21737;42.868;25.320;2022-10-28T02:01:39;10.10;;;6.23;;
20038;SDS011;21737;42.868;25.320;2022-10-28T02:04:41;20.30;;;9.83;;
20038;SDS011;21737;42.868;25.320;2022-10-28T02:07:43;18.10;;;10.73;;
20038;SDS011;21737;42.868;25.320;2022-10-28T02:17:20;14.57;;;7.70;;
20038;SDS011;21737;42.868;25.320;2022-10-28T02:20:31;10.83;;;6.60;;
20038;SDS011;21737;42.868;25.320;2022-10-28T02:26:51;12.00;;;6.67;;
20038;SDS011;21737;42.868;25.320;2022-10-28T02:30:00;8.17;;;5.27;;
20038;SDS011;21737;42.868;25.320;2022-10-28T02:33:02;8.37;;;5.77;;
20038;SDS011;21737;42.868;25.320;2022-10-28T02:39:06;9.87;;;5.23;;
20038;SDS011;21737;42.868;25.320;2022-10-28T02:42:12;8.87;;;5.70;;
20038;SDS011;21737;42.868;25.320;2022-10-28T02:45:16;10.43;;;5.50;;
20038;SDS011;21737;42.868;25.320;2022-10-28T02:48:24;9.00;;;5.70;;
20038;SDS011;21737;42.868;25.320;2022-10-28T02:51:34;7.70;;;5.20;;
20038;SDS011;21737;42.868;25.320;2022-10-28T02:54:39;11.03;;;5.47;;
20038;SDS011;21737;42.868;25.320;2022-10-28T02:57:43;8.33;;;5.80;;
20038;SDS011;21737;42.868;25.320;2022-10-28T03:00:45;10.23;;;5.70;;
20038;SDS011;21737;42.868;25.320;2022-10-28T03:03:47;8.47;;;6.10;;
20038;SDS011;21737;42.868;25.320;2022-10-28T03:06:48;8.63;;;6.17;;
20038;SDS011;21737;42.868;25.320;2022-10-28T03:09:50;7.30;;;5.37;;
20038;SDS011;21737;42.868;25.320;2022-10-28T03:12:52;8.77;;;5.77;;
20038;SDS011;21737;42.868;25.320;2022-10-28T03:15:53;7.90;;;5.23;;
20038;SDS011;21737;42.868;25.320;2022-10-28T03:18:55;7.90;;;5.67;;
20038;SDS011;21737;42.868;25.320;2022-10-28T03:21:57;10.73;;;5.60;;
20038;SDS011;21737;42.868;25.320;2022-10-28T03:24:58;8.07;;;5.30;;
20038;SDS011;21737;42.868;25.320;2022-10-28T03:28:00;7.63;;;4.77;;
20038;SDS011;21737;42.868;25.320;2022-10-28T03:31:01;7.83;;;5.07;;
20038;SDS011;21737;42.868;25.320;2022-10-28T03:34:03;7.80;;;4.93;;
20038;SDS011;21737;42.868;25.320;2022-10-28T03:37:06;7.50;;;5.13;;
20038;SDS011;21737;42.868;25.320;2022-10-28T03:40:08;8.97;;;5.00;;
20038;SDS011;21737;42.868;25.320;2022-10-28T03:43:10;13.97;;;5.90;;
20038;SDS011;21737;42.868;25.320;2022-10-28T03:46:11;9.13;;;5.37;;
20038;SDS011;21737;42.868;25.320;2022-10-28T03:49:13;8.50;;;5.30;;
20038;SDS011;21737;42.868;25.320;2022-10-28T03:52:15;11.17;;;5.87;;
20038;SDS011;21737;42.868;25.320;2022-10-28T03:55:16;15.17;;;6.40;;
20038;SDS011;21737;42.868;25.320;2022-10-28T03:58:18;8.13;;;5.50;;
20038;SDS011;21737;42.868;25.320;2022-10-28T04:01:20;7.87;;;5.20;;
20038;SDS011;21737;42.868;25.320;2022-10-28T04:04:22;10.40;;;5.10;;
20038;SDS011;21737;42.868;25.320;2022-10-28T04:07:30;8.07;;;5.20;;
20038;SDS011;21737;42.868;25.320;2022-10-28T04:10:31;9.40;;;5.00;;
20038;SDS011;21737;42.868;25.320;2022-10-28T04:13:33;11.07;;;5.37;;
20038;SDS011;21737;42.868;25.320;2022-10-28T04:16:35;10.87;;;5.80;;
20038;SDS011;21737;42.868;25.320;2022-10-28T04:19:36;8.80;;;5.20;;
20038;SDS011;21737;42.868;25.320;2022-10-28T04:22:38;10.23;;;5.60;;
20038;SDS011;21737;42.868;25.320;2022-10-28T04:25:40;8.97;;;4.93;;
20038;SDS011;21737;42.868;25.320;2022-10-28T04:28:41;10.93;;;5.53;;
20038;SDS011;21737;42.868;25.320;2022-10-28T04:31:43;9.43;;;5.10;;
20038;SDS011;21737;42.868;25.320;2022-10-28T04:34:49;7.83;;;4.87;;
20038;SDS011;21737;42.868;25.320;2022-10-28T04:37:50;9.53;;;4.80;;
20038;SDS011;21737;42.868;25.320;2022-10-28T04:40:52;10.67;;;5.47;;
20038;SDS011;21737;42.868;25.320;2022-10-28T04:43:54;10.17;;;6.17;;
20038;SDS011;21737;42.868;25.320;2022-10-28T04:46:56;6.80;;;4.43;;
20038;SDS011;21737;42.868;25.320;2022-10-28T04:49:58;6.93;;;4.97;;
20038;SDS011;21737;42.868;25.320;2022-10-28T04:52:59;9.83;;;5.73;;
20038;SDS011;21737;42.868;25.320;2022-10-28T04:56:01;7.20;;;4.53;;
20038;SDS011;21737;42.868;25.320;2022-10-28T04:59:02;9.60;;;4.83;;
20038;SDS011;21737;42.868;25.320;2022-10-28T05:02:04;10.03;;;5.07;;
20038;SDS011;21737;42.868;25.320;2022-10-28T05:05:06;8.70;;;5.20;;
20038;SDS011;21737;42.868;25.320;2022-10-28T05:08:08;11.03;;;4.90;;
20038;SDS011;21737;42.868;25.320;2022-10-28T05:11:09;8.57;;;4.37;;
20038;SDS011;21737;42.868;25.320;2022-10-28T05:14:11;7.07;;;4.40;;
20038;SDS011;21737;42.868;25.320;2022-10-28T05:17:13;7.43;;;4.50;;
20038;SDS011;21737;42.868;25.320;2022-10-28T05:20:15;11.20;;;5.20;;
20038;SDS011;21737;42.868;25.320;2022-10-28T05:23:17;7.03;;;4.20;;
20038;SDS011;21737;42.868;25.320;2022-10-28T05:26:19;9.47;;;4.60;;
20038;SDS011;21737;42.868;25.320;2022-10-28T05:29:20;13.73;;;7.47;;
20038;SDS011;21737;42.868;25.320;2022-10-28T05:32:22;14.53;;;7.30;;
20038;SDS011;21737;42.868;25.320;2022-10-28T05:35:23;21.37;;;11.97;;
20038;SDS011;21737;42.868;25.320;2022-10-28T05:38:25;12.50;;;8.77;;
20038;SDS011;21737;42.868;25.320;2022-10-28T05:41:27;9.53;;;5.67;;
20038;SDS011;21737;42.868;25.320;2022-10-28T05:44:28;11.33;;;6.30;;
20038;SDS011;21737;42.868;25.320;2022-10-28T05:47:30;10.03;;;5.47;;
20038;SDS011;21737;42.868;25.320;2022-10-28T05:50:34;8.07;;;4.93;;
20038;SDS011;21737;42.868;25.320;2022-10-28T05:53:36;8.47;;;5.30;;
20038;SDS011;21737;42.868;25.320;2022-10-28T05:56:37;7.33;;;4.40;;
20038;SDS011;21737;42.868;25.320;2022-10-28T05:59:39;12.03;;;5.97;;
20038;SDS011;21737;42.868;25.320;2022-10-28T06:02:41;11.23;;;6.23;;
20038;SDS011;21737;42.868;25.320;2022-10-28T06:05:43;9.10;;;5.73;;
20038;SDS011;21737;42.868;25.320;2022-10-28T06:08:44;10.20;;;6.17;;
20038;SDS011;21737;42.868;25.320;2022-10-28T06:11:46;8.90;;;5.40;;
20038;SDS011;21737;42.868;25.320;2022-10-28T06:14:48;8.43;;;4.90;;
20038;SDS011;21737;42.868;25.320;2022-10-28T06:17:49;10.30;;;5.63;;
20038;SDS011;21737;42.868;25.320;2022-10-28T06:21:00;10.63;;;6.50;;
20038;SDS011;21737;42.868;25.320;2022-10-28T06:24:02;13.70;;;8.73;;
20038;SDS011;21737;42.868;25.320;2022-10-28T06:27:03;13.63;;;7.60;;
20038;SDS011;21737;42.868;25.320;2022-10-28T06:30:05;10.70;;;7.00;;
20038;SDS011;21737;42.868;25.320;2022-10-28T06:33:07;12.63;;;7.53;;
20038;SDS011;21737;42.868;25.320;2022-10-28T06:36:09;9.03;;;5.63;;
20038;SDS011;21737;42.868;25.320;2022-10-28T06:39:10;12.17;;;6.80;;
20038;SDS011;21737;42.868;25.320;2022-10-28T06:42:12;9.40;;;5.47;;
20038;SDS011;21737;42.868;25.320;2022-10-28T06:45:14;12.50;;;7.00;;
20038;SDS011;21737;42.868;25.320;2022-10-28T06:48:15;10.93;;;6.37;;
20038;SDS011;21737;42.868;25.320;2022-10-28T06:51:17;13.53;;;6.63;;
20038;SDS011;21737;42.868;25.320;2022-10-28T06:54:19;11.50;;;6.23;;
20038;SDS011;21737;42.868;25.320;2022-10-28T06:57:21;15.17;;;7.40;;
20038;SDS011;21737;42.868;25.320;2022-10-28T07:00:29;13.27;;;7.60;;
20038;SDS011;21737;42.868;25.320;2022-10-28T07:03:31;24.67;;;7.93;;
20038;SDS011;21737;42.868;25.320;2022-10-28T07:06:33;11.27;;;6.43;;
20038;SDS011;21737;42.868;25.320;2022-10-28T07:09:34;22.93;;;13.20;;
20038;SDS011;21737;42.868;25.320;2022-10-28T07:12:39;35.70;;;17.83;;
20038;SDS011;21737;42.868;25.320;2022-10-28T07:15:41;29.47;;;15.63;;
20038;SDS011;21737;42.868;25.320;2022-10-28T07:18:43;19.67;;;12.07;;
20038;SDS011;21737;42.868;25.320;2022-10-28T07:21:46;17.30;;;9.80;;
20038;SDS011;21737;42.868;25.320;2022-10-28T07:24:47;15.77;;;8.17;;
20038;SDS011;21737;42.868;25.320;2022-10-28T07:27:50;19.87;;;7.20;;
20038;SDS011;21737;42.868;25.320;2022-10-28T07:30:52;20.43;;;7.97;;
20038;SDS011;21737;42.868;25.320;2022-10-28T07:33:54;17.67;;;7.10;;
20038;SDS011;21737;42.868;25.320;2022-10-28T07:36:55;15.53;;;6.70;;
20038;SDS011;21737;42.868;25.320;2022-10-28T07:39:57;27.83;;;7.57;;
20038;SDS011;21737;42.868;25.320;2022-10-28T07:42:58;20.07;;;7.53;;
20038;SDS011;21737;42.868;25.320;2022-10-28T07:46:00;11.82;;;6.10;;
20038;SDS011;21737;42.868;25.320;2022-10-28T07:49:02;25.90;;;8.20;;
20038;SDS011;21737;42.868;25.320;2022-10-28T07:52:03;11.02;;;7.55;;
20038;SDS011;21737;42.868;25.320;2022-10-28T07:55:05;18.43;;;8.27;;
20038;SDS011;21737;42.868;25.320;2022-10-28T07:58:08;20.97;;;8.77;;
20038;SDS011;21737;42.868;25.320;2022-10-28T08:01:10;23.40;;;6.97;;
20038;SDS011;21737;42.868;25.320;2022-10-28T08:04:12;16.60;;;7.83;;
20038;SDS011;21737;42.868;25.320;2022-10-28T08:07:14;12.37;;;6.17;;
20038;SDS011;21737;42.868;25.320;2022-10-28T08:10:16;18.27;;;6.27;;
20038;SDS011;21737;42.868;25.320;2022-10-28T08:13:17;14.75;;;6.70;;
20038;SDS011;21737;42.868;25.320;2022-10-28T08:16:19;14.23;;;7.45;;
20038;SDS011;21737;42.868;25.320;2022-10-28T08:19:21;15.52;;;5.97;;
20038;SDS011;21737;42.868;25.320;2022-10-28T08:22:22;14.93;;;5.18;;
20038;SDS011;21737;42.868;25.320;2022-10-28T08:25:24;14.85;;;4.63;;
20038;SDS011;21737;42.868;25.320;2022-10-28T08:28:26;12.45;;;4.22;;
20038;SDS011;21737;42.868;25.320;2022-10-28T08:31:31;9.27;;;5.80;;
20038;SDS011;21737;42.868;25.320;2022-10-28T08:34:33;10.48;;;4.93;;
20038;SDS011;21737;42.868;25.320;2022-10-28T08:37:38;9.73;;;4.63;;
20038;SDS011;21737;42.868;25.320;2022-10-28T08:40:47;14.15;;;5.20;;
20038;SDS011;21737;42.868;25.320;2022-10-28T08:50:19;7.72;;;3.67;;
20038;SDS011;21737;42.868;25.320;2022-10-28T08:53:28;8.68;;;3.28;;
20038;SDS011;21737;42.868;25.320;2022-10-28T08:56:35;6.32;;;3.63;;
20038;SDS011;21737;42.868;25.320;2022-10-28T08:59:39;6.32;;;3.67;;
20038;SDS011;21737;42.868;25.320;2022-10-28T09:02:54;8.95;;;5.63;;
20038;SDS011;21737;42.868;25.320;2022-10-28T09:06:02;9.20;;;5.07;;
20038;SDS011;21737;42.868;25.320;2022-10-28T09:09:04;5.57;;;4.22;;
20038;SDS011;21737;42.868;25.320;2022-10-28T09:21:18;4.72;;;3.17;;
20038;SDS011;21737;42.868;25.320;2022-10-28T09:24:25;6.30;;;3.05;;
20038;SDS011;21737;42.868;25.320;2022-10-28T09:27:43;8.25;;;4.32;;
20038;SDS011;21737;42.868;25.320;2022-10-28T09:34:04;5.00;;;3.00;;
20038;SDS011;21737;42.868;25.320;2022-10-28T09:40:14;11.83;;;6.30;;
20038;SDS011;21737;42.868;25.320;2022-10-28T09:43:24;6.73;;;4.90;;
20038;SDS011;21737;42.868;25.320;2022-10-28T09:46:27;4.53;;;3.60;;
20038;SDS011;21737;42.868;25.320;2022-10-28T09:49:36;6.50;;;4.00;;
20038;SDS011;21737;42.868;25.320;2022-10-28T09:53:03;9.67;;;3.27;;
20038;SDS011;21737;42.868;25.320;2022-10-28T09:56:00;5.77;;;3.67;;
20038;SDS011;21737;42.868;25.320;2022-10-28T09:59:03;5.50;;;3.73;;
20038;SDS011;21737;42.868;25.320;2022-10-28T10:02:05;5.87;;;3.20;;
20038;SDS011;21737;42.868;25.320;2022-10-28T10:05:15;6.67;;;3.70;;
20038;SDS011;21737;42.868;25.320;2022-10-28T10:08:18;3.47;;;2.90;;
20038;SDS011;21737;42.868;25.320;2022-10-28T10:14:27;4.27;;;3.40;;
20038;SDS011;21737;42.868;25.320;2022-10-28T10:17:46;7.90;;;4.20;;
20038;SDS011;21737;42.868;25.320;2022-10-28T10:20:52;9.83;;;3.97;;
20038;SDS011;21737;42.868;25.320;2022-10-28T10:23:54;6.53;;;3.30;;
20038;SDS011;21737;42.868;25.320;2022-10-28T10:26:56;4.03;;;3.00;;
20038;SDS011;21737;42.868;25.320;2022-10-28T10:29:58;7.40;;;3.17;;
20038;SDS011;21737;42.868;25.320;2022-10-28T10:33:00;6.67;;;3.53;;
20038;SDS011;21737;42.868;25.320;2022-10-28T10:39:17;6.90;;;2.97;;
20038;SDS011;21737;42.868;25.320;2022-10-28T10:42:20;4.60;;;2.70;;
20038;SDS011;21737;42.868;25.320;2022-10-28T10:45:25;5.40;;;2.33;;
20038;SDS011;21737;42.868;25.320;2022-10-28T10:48:28;4.40;;;2.80;;
20038;SDS011;21737;42.868;25.320;2022-10-28T10:51:30;4.60;;;2.33;;
20038;SDS011;21737;42.868;25.320;2022-10-28T10:54:32;3.03;;;2.30;;
20038;SDS011;21737;42.868;25.320;2022-10-28T10:57:34;3.73;;;2.60;;
20038;SDS011;21737;42.868;25.320;2022-10-28T11:00:36;5.13;;;2.40;;
20038;SDS011;21737;42.868;25.320;2022-10-28T11:03:45;3.13;;;2.60;;
20038;SDS011;21737;42.868;25.320;2022-10-28T11:06:48;4.40;;;2.60;;
20038;SDS011;21737;42.868;25.320;2022-10-28T11:09:50;4.73;;;2.40;;
20038;SDS011;21737;42.868;25.320;2022-10-28T11:12:56;2.77;;;2.10;;
20038;SDS011;21737;42.868;25.320;2022-10-28T11:15:59;2.93;;;2.30;;
20038;SDS011;21737;42.868;25.320;2022-10-28T11:19:01;2.93;;;2.00;;
20038;SDS011;21737;42.868;25.320;2022-10-28T11:28:49;2.30;;;1.97;;
20038;SDS011;21737;42.868;25.320;2022-10-28T11:32:15;4.37;;;2.40;;
20038;SDS011;21737;42.868;25.320;2022-10-28T11:38:47;4.10;;;2.50;;
20038;SDS011;21737;42.868;25.320;2022-10-28T11:51:33;3.47;;;2.37;;
20038;SDS011;21737;42.868;25.320;2022-10-28T12:04:24;4.47;;;2.03;;
20038;SDS011;21737;42.868;25.320;2022-10-28T12:10:59;3.53;;;2.00;;
20038;SDS011;21737;42.868;25.320;2022-10-28T12:23:33;3.77;;;2.10;;
20038;SDS011;21737;42.868;25.320;2022-10-28T12:26:42;6.77;;;2.30;;
20038;SDS011;21737;42.868;25.320;2022-10-28T12:29:47;5.43;;;2.20;;
20038;SDS011;21737;42.868;25.320;2022-10-28T12:32:51;4.40;;;2.13;;
20038;SDS011;21737;42.868;25.320;2022-10-28T12:36:17;3.00;;;2.13;;
20038;SDS011;21737;42.868;25.320;2022-10-28T12:39:22;5.03;;;2.80;;
20038;SDS011;21737;42.868;25.320;2022-10-28T12:42:36;2.50;;;2.27;;
20038;SDS011;21737;42.868;25.320;2022-10-28T12:45:39;2.70;;;2.20;;
20038;SDS011;21737;42.868;25.320;2022-10-28T12:48:46;3.20;;;2.30;;
20038;SDS011;21737;42.868;25.320;2022-10-28T12:51:48;3.37;;;2.50;;
20038;SDS011;21737;42.868;25.320;2022-10-28T12:57:56;4.60;;;2.40;;
20038;SDS011;21737;42.868;25.320;2022-10-28T13:01:10;5.77;;;2.13;;
20038;SDS011;21737;42.868;25.320;2022-10-28T13:04:13;4.57;;;2.63;;
20038;SDS011;21737;42.868;25.320;2022-10-28T13:07:20;3.33;;;2.47;;
20038;SDS011;21737;42.868;25.320;2022-10-28T13:11:11;4.43;;;2.30;;
20038;SDS011;21737;42.868;25.320;2022-10-28T13:20:21;3.97;;;2.47;;
20038;SDS011;21737;42.868;25.320;2022-10-28T13:23:33;2.97;;;2.27;;
20038;SDS011;21737;42.868;25.320;2022-10-28T13:26:41;6.10;;;2.40;;
20038;SDS011;21737;42.868;25.320;2022-10-28T13:29:47;3.17;;;2.40;;
20038;SDS011;21737;42.868;25.320;2022-10-28T13:32:51;3.07;;;2.77;;
20038;SDS011;21737;42.868;25.320;2022-10-28T13:36:33;3.30;;;2.10;;
20038;SDS011;21737;42.868;25.320;2022-10-28T13:42:30;4.77;;;2.50;;
20038;SDS011;21737;42.868;25.320;2022-10-28T13:48:52;4.73;;;2.70;;
20038;SDS011;21737;42.868;25.320;2022-10-28T13:52:01;5.70;;;2.83;;
20038;SDS011;21737;42.868;25.320;2022-10-28T13:58:20;6.67;;;2.70;;
20038;SDS011;21737;42.868;25.320;2022-10-28T14:04:48;7.27;;;3.03;;
20038;SDS011;21737;42.868;25.320;2022-10-28T14:10:58;7.20;;;3.30;;
20038;SDS011;21737;42.868;25.320;2022-10-28T14:14:01;5.27;;;3.10;;
20038;SDS011;21737;42.868;25.320;2022-10-28T14:17:19;3.83;;;2.80;;
20038;SDS011;21737;42.868;25.320;2022-10-28T14:20:33;3.87;;;3.00;;
20038;SDS011;21737;42.868;25.320;2022-10-28T14:30:19;11.73;;;3.40;;
20038;SDS011;21737;42.868;25.320;2022-10-28T14:33:21;5.70;;;2.97;;
20038;SDS011;21737;42.868;25.320;2022-10-28T14:39:44;5.17;;;2.63;;
20038;SDS011;21737;42.868;25.320;2022-10-28T14:49:21;4.87;;;3.30;;
20038;SDS011;21737;42.868;25.320;2022-10-28T14:52:24;13.57;;;5.53;;
20038;SDS011;21737;42.868;25.320;2022-10-28T14:55:29;20.33;;;8.40;;
20038;SDS011;21737;42.868;25.320;2022-10-28T14:58:41;15.40;;;7.23;;
20038;SDS011;21737;42.868;25.320;2022-10-28T15:08:01;10.10;;;3.40;;
20038;SDS011;21737;42.868;25.320;2022-10-28T15:11:03;3.17;;;2.50;;
20038;SDS011;21737;42.868;25.320;2022-10-28T15:17:23;11.07;;;5.33;;
20038;SDS011;21737;42.868;25.320;2022-10-28T15:20:26;9.07;;;3.20;;
20038;SDS011;21737;42.868;25.320;2022-10-28T15:23:28;16.10;;;7.10;;
20038;SDS011;21737;42.868;25.320;2022-10-28T15:26:29;12.20;;;5.07;;
20038;SDS011;21737;42.868;25.320;2022-10-28T15:29:31;11.30;;;4.97;;
20038;SDS011;21737;42.868;25.320;2022-10-28T15:32:33;10.80;;;4.00;;
20038;SDS011;21737;42.868;25.320;2022-10-28T15:35:36;7.53;;;3.80;;
20038;SDS011;21737;42.868;25.320;2022-10-28T15:38:39;8.43;;;3.23;;
20038;SDS011;21737;42.868;25.320;2022-10-28T15:41:41;13.70;;;7.43;;
20038;SDS011;21737;42.868;25.320;2022-10-28T15:44:43;9.43;;;4.63;;
20038;SDS011;21737;42.868;25.320;2022-10-28T15:47:45;10.07;;;4.10;;
20038;SDS011;21737;42.868;25.320;2022-10-28T15:51:09;7.63;;;4.20;;
20038;SDS011;21737;42.868;25.320;2022-10-28T15:54:10;13.77;;;7.37;;
20038;SDS011;21737;42.868;25.320;2022-10-28T15:57:25;12.23;;;6.00;;
20038;SDS011;21737;42.868;25.320;2022-10-28T16:00:31;16.70;;;8.47;;
20038;SDS011;21737;42.868;25.320;2022-10-28T16:03:43;23.73;;;13.57;;
20038;SDS011;21737;42.868;25.320;2022-10-28T16:06:45;22.30;;;12.60;;
20038;SDS011;21737;42.868;25.320;2022-10-28T16:09:47;31.10;;;16.17;;
20038;SDS011;21737;42.868;25.320;2022-10-28T16:12:50;34.30;;;16.90;;
20038;SDS011;21737;42.868;25.320;2022-10-28T16:15:56;26.87;;;15.17;;
20038;SDS011;21737;42.868;25.320;2022-10-28T16:19:09;21.60;;;11.23;;
20038;SDS011;21737;42.868;25.320;2022-10-28T16:22:14;20.50;;;11.53;;
20038;SDS011;21737;42.868;25.320;2022-10-28T16:25:17;35.47;;;16.70;;
20038;SDS011;21737;42.868;25.320;2022-10-28T16:28:24;26.20;;;14.03;;
20038;SDS011;21737;42.868;25.320;2022-10-28T16:31:26;23.50;;;12.77;;
20038;SDS011;21737;42.868;25.320;2022-10-28T16:34:28;19.87;;;13.07;;
20038;SDS011;21737;42.868;25.320;2022-10-28T16:37:31;24.83;;;15.60;;
20038;SDS011;21737;42.868;25.320;2022-10-28T16:40:32;24.83;;;16.90;;
20038;SDS011;21737;42.868;25.320;2022-10-28T16:43:54;23.93;;;15.87;;
20038;SDS011;21737;42.868;25.320;2022-10-28T16:46:56;24.63;;;15.40;;
20038;SDS011;21737;42.868;25.320;2022-10-28T16:49:58;28.03;;;15.93;;
20038;SDS011;21737;42.868;25.320;2022-10-28T16:52:59;26.77;;;14.67;;
20038;SDS011;21737;42.868;25.320;2022-10-28T16:56:01;28.83;;;15.40;;
20038;SDS011;21737;42.868;25.320;2022-10-28T16:59:02;23.13;;;13.97;;
20038;SDS011;21737;42.868;25.320;2022-10-28T17:05:24;20.60;;;10.43;;
20038;SDS011;21737;42.868;25.320;2022-10-28T17:08:26;12.23;;;7.83;;
20038;SDS011;21737;42.868;25.320;2022-10-28T17:11:47;8.67;;;5.10;;
20038;SDS011;21737;42.868;25.320;2022-10-28T17:14:49;10.30;;;6.47;;
20038;SDS011;21737;42.868;25.320;2022-10-28T17:17:51;10.53;;;5.93;;
20038;SDS011;21737;42.868;25.320;2022-10-28T17:20:59;11.60;;;6.97;;
20038;SDS011;21737;42.868;25.320;2022-10-28T17:24:02;14.07;;;8.63;;
20038;SDS011;21737;42.868;25.320;2022-10-28T17:27:04;17.97;;;10.50;;
20038;SDS011;21737;42.868;25.320;2022-10-28T17:30:06;24.07;;;15.10;;
20038;SDS011;21737;42.868;25.320;2022-10-28T17:33:10;10.53;;;7.23;;
20038;SDS011;21737;42.868;25.320;2022-10-28T17:36:11;13.67;;;6.80;;
20038;SDS011;21737;42.868;25.320;2022-10-28T17:39:13;12.27;;;7.37;;
20038;SDS011;21737;42.868;25.320;2022-10-28T17:42:20;12.20;;;8.17;;
20038;SDS011;21737;42.868;25.320;2022-10-28T17:45:21;13.53;;;8.90;;
20038;SDS011;21737;42.868;25.320;2022-10-28T17:48:23;15.27;;;9.37;;
20038;SDS011;21737;42.868;25.320;2022-10-28T17:51:24;21.67;;;11.07;;
20038;SDS011;21737;42.868;25.320;2022-10-28T17:54:26;21.83;;;9.10;;
20038;SDS011;21737;42.868;25.320;2022-10-28T17:57:28;20.87;;;11.17;;
20038;SDS011;21737;42.868;25.320;2022-10-28T18:00:29;18.00;;;9.80;;
20038;SDS011;21737;42.868;25.320;2022-10-28T18:03:31;17.57;;;8.93;;
20038;SDS011;21737;42.868;25.320;2022-10-28T18:06:39;16.50;;;8.40;;
20038;SDS011;21737;42.868;25.320;2022-10-28T18:09:40;12.77;;;7.63;;
20038;SDS011;21737;42.868;25.320;2022-10-28T18:12:42;19.67;;;11.50;;
20038;SDS011;21737;42.868;25.320;2022-10-28T18:15:44;21.23;;;11.37;;
20038;SDS011;21737;42.868;25.320;2022-10-28T18:18:46;18.93;;;8.10;;
20038;SDS011;21737;42.868;25.320;2022-10-28T18:21:47;11.27;;;6.67;;
20038;SDS011;21737;42.868;25.320;2022-10-28T18:24:49;17.03;;;6.77;;
20038;SDS011;21737;42.868;25.320;2022-10-28T18:27:51;13.03;;;6.70;;
20038;SDS011;21737;42.868;25.320;2022-10-28T18:30:52;17.53;;;8.20;;
20038;SDS011;21737;42.868;25.320;2022-10-28T18:33:54;12.83;;;6.23;;
20038;SDS011;21737;42.868;25.320;2022-10-28T18:36:56;13.40;;;7.50;;
20038;SDS011;21737;42.868;25.320;2022-10-28T18:39:58;17.50;;;8.13;;
20038;SDS011;21737;42.868;25.320;2022-10-28T18:43:00;11.03;;;6.17;;
20038;SDS011;21737;42.868;25.320;2022-10-28T18:46:01;14.23;;;6.03;;
20038;SDS011;21737;42.868;25.320;2022-10-28T18:49:03;17.67;;;9.43;;
20038;SDS011;21737;42.868;25.320;2022-10-28T18:52:08;16.37;;;9.53;;
20038;SDS011;21737;42.868;25.320;2022-10-28T18:55:10;14.67;;;7.33;;
20038;SDS011;21737;42.868;25.320;2022-10-28T18:58:12;16.20;;;7.83;;
20038;SDS011;21737;42.868;25.320;2022-10-28T19:01:19;14.73;;;7.40;;
20038;SDS011;21737;42.868;25.320;2022-10-28T19:04:21;17.27;;;9.13;;
20038;SDS011;21737;42.868;25.320;2022-10-28T19:07:23;11.03;;;6.60;;
20038;SDS011;21737;42.868;25.320;2022-10-28T19:10:25;12.03;;;6.80;;
20038;SDS011;21737;42.868;25.320;2022-10-28T19:13:27;18.07;;;7.20;;
20038;SDS011;21737;42.868;25.320;2022-10-28T19:16:29;11.40;;;6.30;;
20038;SDS011;21737;42.868;25.320;2022-10-28T19:19:31;10.03;;;5.27;;
20038;SDS011;21737;42.868;25.320;2022-10-28T19:22:39;9.00;;;5.93;;
20038;SDS011;21737;42.868;25.320;2022-10-28T19:25:41;9.77;;;6.47;;
20038;SDS011;21737;42.868;25.320;2022-10-28T19:28:43;10.37;;;5.50;;
20038;SDS011;21737;42.868;25.320;2022-10-28T19:31:45;8.13;;;5.60;;
20038;SDS011;21737;42.868;25.320;2022-10-28T19:34:47;9.83;;;5.07;;
20038;SDS011;21737;42.868;25.320;2022-10-28T19:37:50;7.33;;;4.93;;
20038;SDS011;21737;42.868;25.320;2022-10-28T19:40:52;6.87;;;4.70;;
20038;SDS011;21737;42.868;25.320;2022-10-28T19:43:54;6.50;;;4.90;;
20038;SDS011;21737;42.868;25.320;2022-10-28T19:46:59;9.30;;;4.90;;
20038;SDS011;21737;42.868;25.320;2022-10-28T19:50:01;11.63;;;6.03;;
20038;SDS011;21737;42.868;25.320;2022-10-28T19:53:02;8.87;;;4.70;;
20038;SDS011;21737;42.868;25.320;2022-10-28T19:56:04;11.17;;;5.77;;
20038;SDS011;21737;42.868;25.320;2022-10-28T19:59:06;15.07;;;5.80;;
20038;SDS011;21737;42.868;25.320;2022-10-28T20:02:08;12.00;;;6.20;;
20038;SDS011;21737;42.868;25.320;2022-10-28T20:05:10;9.50;;;6.00;;
20038;SDS011;21737;42.868;25.320;2022-10-28T20:08:12;8.83;;;5.23;;
20038;SDS011;21737;42.868;25.320;2022-10-28T20:11:15;11.63;;;5.47;;
20038;SDS011;21737;42.868;25.320;2022-10-28T20:14:23;9.00;;;5.00;;
20038;SDS011;21737;42.868;25.320;2022-10-28T20:17:25;8.17;;;5.00;;
20038;SDS011;21737;42.868;25.320;2022-10-28T20:20:26;12.17;;;5.40;;
20038;SDS011;21737;42.868;25.320;2022-10-28T20:23:28;7.97;;;5.07;;
20038;SDS011;21737;42.868;25.320;2022-10-28T20:26:30;7.83;;;5.27;;
20038;SDS011;21737;42.868;25.320;2022-10-28T20:29:32;7.93;;;5.33;;
20038;SDS011;21737;42.868;25.320;2022-10-28T20:32:33;11.83;;;5.53;;
20038;SDS011;21737;42.868;25.320;2022-10-28T20:35:36;11.70;;;7.60;;
20038;SDS011;21737;42.868;25.320;2022-10-28T20:38:38;13.47;;;7.47;;